Terminal Aerodrome Forecast
Issued by NWS Shreveport, LA

Home | Current Version | Previous Version | Text Only | Print | Product List | Glossary On
Versions: 1 2 3 4 5 6 7 8 9 10 11 12 13 14 15 16
000
FTUS44 KSHV 291720
TAFTYR
TAF
KTYR 291720Z 2918/3018 04005KT P6SM FEW035 SCT050
     FM292000 08008KT P6SM VCTS BKN040CB
      TEMPO 2920/2924 VRB15G25KT 3SM -TSRA
     FM300100 08005KT P6SM SCT050 BKN100 BKN250
     FM301200 01004KT 5SM BR BKN250
     FM301500 05006KT P6SM SCT060=

USA.gov is the U.S. government's official web portal to all federal, state and local government web resources and services.